createdAt,value
2022-07-25T00:00:25.397Z,1.08
2022-07-25T00:02:52.213Z,0.95
2022-07-25T00:05:19.101Z,1.70
2022-07-25T00:07:46.213Z,1.55
2022-07-25T00:10:13.165Z,1.50
2022-07-25T00:12:40.166Z,1.90
2022-07-25T00:15:07.391Z,1.67
2022-07-25T00:17:34.319Z,1.80
2022-07-25T00:20:01.803Z,1.90
2022-07-25T00:22:28.886Z,1.85
2022-07-25T00:24:55.748Z,1.67
2022-07-25T00:27:22.518Z,1.85
2022-07-25T00:29:49.409Z,1.75
2022-07-25T00:32:16.249Z,1.38
2022-07-25T00:34:43.101Z,1.25
2022-07-25T00:37:10.088Z,1.13
2022-07-25T00:39:36.913Z,1.50
2022-07-25T00:42:04.046Z,1.60
2022-07-25T00:44:32.691Z,1.80
2022-07-25T00:47:00.106Z,1.60
2022-07-25T00:49:27.527Z,1.42
2022-07-25T00:51:54.602Z,1.40
2022-07-25T00:54:22.200Z,1.20
2022-07-25T00:56:50.466Z,1.50
2022-07-25T00:59:18.355Z,1.50
2022-07-25T01:01:48.217Z,1.60
2022-07-25T01:04:15.974Z,1.30
2022-07-25T01:06:42.880Z,1.60
2022-07-25T01:09:10.248Z,1.42
2022-07-25T01:11:37.849Z,1.30
2022-07-25T01:14:05.697Z,1.65
2022-07-25T01:16:32.633Z,1.90
2022-07-25T01:18:59.849Z,1.30
2022-07-25T01:21:27.402Z,1.33
2022-07-25T01:23:54.239Z,1.45
2022-07-25T01:26:21.310Z,1.20
2022-07-25T01:28:48.099Z,1.02
2022-07-25T01:31:16.895Z,1.10
2022-07-25T01:33:43.829Z,1.42
2022-07-25T01:36:10.876Z,1.70
2022-07-25T01:38:37.666Z,1.45
2022-07-25T01:41:04.683Z,1.40
2022-07-25T01:43:31.628Z,1.27
2022-07-25T01:45:58.404Z,1.23
2022-07-25T01:48:25.854Z,1.40
2022-07-25T01:50:53.382Z,1.20
2022-07-25T01:53:21.318Z,1.40
2022-07-25T01:55:48.111Z,1.33
2022-07-25T01:58:14.987Z,1.20
2022-07-25T02:00:41.990Z,1.40
2022-07-25T02:03:27.327Z,1.38
2022-07-25T02:05:54.332Z,1.40
2022-07-25T02:08:21.349Z,1.10
2022-07-25T02:10:48.134Z,1.38
2022-07-25T02:13:15.183Z,1.33
2022-07-25T02:15:42.002Z,1.80
2022-07-25T02:18:08.880Z,1.98
2022-07-25T02:20:35.689Z,2.20
2022-07-25T02:23:03.695Z,2.10
2022-07-25T02:25:30.691Z,1.60
2022-07-25T02:27:57.540Z,1.60
2022-07-25T02:30:24.483Z,1.55
2022-07-25T02:32:51.464Z,1.40
2022-07-25T02:35:18.838Z,1.52
2022-07-25T02:37:45.844Z,1.48
2022-07-25T02:40:13.078Z,1.50
2022-07-25T02:42:39.903Z,1.77
2022-07-25T02:45:07.386Z,1.90
2022-07-25T02:47:34.166Z,1.40
2022-07-25T02:50:00.985Z,1.10
2022-07-25T02:52:27.751Z,1.35
2022-07-25T02:54:54.561Z,1.50
2022-07-25T02:57:21.338Z,1.67
2022-07-25T02:59:48.158Z,1.92
2022-07-25T03:02:15.030Z,2.13
2022-07-25T03:04:41.823Z,1.90
2022-07-25T03:07:08.678Z,1.50
2022-07-25T03:09:35.429Z,1.50
2022-07-25T03:12:02.431Z,1.33
2022-07-25T03:14:29.194Z,1.52
2022-07-25T03:16:56.214Z,1.38
2022-07-25T03:19:23.104Z,1.90
2022-07-25T03:21:50.587Z,1.60
2022-07-25T03:24:18.932Z,1.70
2022-07-25T03:26:48.893Z,1.40
2022-07-25T03:29:15.634Z,1.52
2022-07-25T03:31:42.508Z,1.25
2022-07-25T03:34:09.669Z,1.38
2022-07-25T03:36:36.848Z,1.17
2022-07-25T03:39:05.481Z,1.40
2022-07-25T03:41:32.726Z,1.30
2022-07-25T03:43:59.598Z,1.60
2022-07-25T03:46:29.275Z,1.40
2022-07-25T03:48:56.249Z,1.45
2022-07-25T03:51:23.164Z,1.90
2022-07-25T03:54:02.044Z,1.60
2022-07-25T03:56:43.907Z,1.63
2022-07-25T03:59:13.219Z,1.50
2022-07-25T04:01:40.774Z,1.33
2022-07-25T04:04:08.320Z,1.60
2022-07-25T04:06:35.352Z,1.77
2022-07-25T04:09:03.106Z,1.83
2022-07-25T04:11:31.068Z,1.90
2022-07-25T04:13:58.782Z,1.52
2022-07-25T04:16:27.914Z,1.83
2022-07-25T04:18:56.275Z,1.95
2022-07-25T04:21:24.515Z,2.10
2022-07-25T04:23:51.656Z,2.08
2022-07-25T04:26:18.766Z,2.10
2022-07-25T04:28:45.618Z,2.58
2022-07-25T04:31:12.501Z,2.30
2022-07-25T04:33:40.594Z,1.85
2022-07-25T04:36:07.953Z,1.75
2022-07-25T04:38:35.135Z,2.10
2022-07-25T04:41:02.873Z,2.08
2022-07-25T04:43:29.669Z,2.10
2022-07-25T04:45:56.541Z,2.28
2022-07-25T04:48:23.951Z,2.25
2022-07-25T04:50:50.872Z,2.20
2022-07-25T04:53:17.700Z,2.20
2022-07-25T04:55:44.614Z,1.88
2022-07-25T04:58:11.480Z,1.52
2022-07-25T05:00:38.318Z,1.55
2022-07-25T05:03:05.175Z,1.55
2022-07-25T05:05:32.005Z,1.10
2022-07-25T05:07:59.775Z,1.10
2022-07-25T05:10:28.095Z,0.93
2022-07-25T05:12:54.939Z,1.05
2022-07-25T05:15:22.301Z,1.00
2022-07-25T05:17:49.085Z,0.80
2022-07-25T05:20:15.985Z,0.77
2022-07-25T05:22:43.282Z,0.90
2022-07-25T05:25:11.606Z,0.80
2022-07-25T05:27:39.289Z,0.80
2022-07-25T05:30:09.587Z,0.75
2022-07-25T05:32:36.589Z,0.77
2022-07-25T05:35:04.974Z,0.90
2022-07-25T05:37:31.750Z,0.80
2022-07-25T05:39:58.499Z,0.70
2022-07-25T05:42:25.276Z,0.73
2022-07-25T05:44:52.245Z,0.90
2022-07-25T05:47:19.005Z,0.90
2022-07-25T05:49:45.817Z,0.82
2022-07-25T05:52:13.377Z,0.80
2022-07-25T05:54:40.280Z,0.80
2022-07-25T05:57:07.199Z,1.10
2022-07-25T05:59:34.042Z,1.00
2022-07-25T06:02:03.915Z,1.30
2022-07-25T06:04:31.171Z,1.20
2022-07-25T06:06:57.925Z,1.35
2022-07-25T06:09:24.768Z,1.27
2022-07-25T06:12:00.570Z,1.30
2022-07-25T06:14:28.979Z,1.50
2022-07-25T06:16:56.824Z,1.55
2022-07-25T06:19:23.637Z,1.40
2022-07-25T06:21:50.697Z,1.70
2022-07-25T06:24:17.484Z,2.20
2022-07-25T06:26:44.325Z,2.20
2022-07-25T06:29:11.255Z,1.73
2022-07-25T06:31:38.249Z,1.80
2022-07-25T06:34:05.614Z,2.40
2022-07-25T06:36:33.089Z,2.15
2022-07-25T06:39:00.535Z,2.13
2022-07-25T06:41:27.317Z,1.70
2022-07-25T06:43:54.223Z,1.83
2022-07-25T06:46:21.280Z,2.08
2022-07-25T06:48:48.216Z,2.10
2022-07-25T06:51:15.326Z,1.70
2022-07-25T06:53:42.162Z,1.90
2022-07-25T06:56:10.572Z,2.13
2022-07-25T06:58:40.112Z,2.13
2022-07-25T07:01:07.331Z,1.70
2022-07-25T07:03:38.188Z,1.65
2022-07-25T07:06:06.474Z,2.00
2022-07-25T07:08:33.825Z,1.90
2022-07-25T07:11:01.617Z,1.50
2022-07-25T07:13:28.445Z,1.58
2022-07-25T07:15:56.040Z,1.80
2022-07-25T07:18:23.395Z,2.00
2022-07-25T07:20:50.289Z,1.77
2022-07-25T07:23:17.988Z,2.35
2022-07-25T07:25:47.022Z,2.60
2022-07-25T07:28:14.620Z,2.38
2022-07-25T07:31:14.665Z,2.40
2022-07-25T07:33:28.374Z,2.50
2022-07-25T07:35:57.268Z,2.90
2022-07-25T07:38:25.196Z,2.75
2022-07-25T07:40:52.905Z,2.97
2022-07-25T07:43:21.709Z,2.67
2022-07-25T07:45:49.964Z,2.50
2022-07-25T07:48:17.101Z,2.85
2022-07-25T07:50:44.010Z,2.92
2022-07-25T07:53:11.002Z,2.80
2022-07-25T07:55:45.532Z,2.90
2022-07-25T07:58:17.835Z,3.00
2022-07-25T08:00:48.242Z,3.10
2022-07-25T08:03:19.508Z,2.88
2022-07-25T08:05:48.952Z,3.00
2022-07-25T08:08:16.363Z,3.50
2022-07-25T08:10:45.787Z,4.10
2022-07-25T08:13:27.856Z,4.28
2022-07-25T08:16:00.151Z,4.05
2022-07-25T08:18:30.000Z,4.28
2022-07-25T08:20:57.830Z,4.30
2022-07-25T08:23:32.064Z,3.40
2022-07-25T08:25:59.479Z,3.22
2022-07-25T08:28:26.665Z,3.17
2022-07-25T08:30:53.770Z,2.65
2022-07-25T08:33:20.793Z,3.08
2022-07-25T08:35:49.663Z,2.60
2022-07-25T08:38:16.568Z,3.35
2022-07-25T08:40:43.387Z,3.33
2022-07-25T08:43:15.719Z,2.78
2022-07-25T08:45:47.952Z,3.00
2022-07-25T08:48:17.903Z,3.00
2022-07-25T08:50:45.851Z,3.88
2022-07-25T08:53:32.537Z,4.38
2022-07-25T08:56:01.907Z,4.40
2022-07-25T08:58:31.261Z,3.80
2022-07-25T09:00:58.939Z,3.92
2022-07-25T09:03:27.070Z,3.47
2022-07-25T09:05:54.145Z,3.58
2022-07-25T09:08:21.002Z,3.78
2022-07-25T09:10:52.930Z,4.25
2022-07-25T09:13:25.701Z,4.13
2022-07-25T09:15:56.870Z,4.57
2022-07-25T09:18:25.383Z,4.28
2022-07-25T09:21:01.732Z,4.10
2022-07-25T09:23:34.914Z,4.60
2022-07-25T09:26:22.083Z,3.90
2022-07-25T09:28:53.525Z,4.10
2022-07-25T09:31:21.440Z,3.88
2022-07-25T09:34:01.686Z,3.85
2022-07-25T09:36:28.815Z,3.95
2022-07-25T09:38:58.001Z,3.97
2022-07-25T09:41:40.699Z,4.18
2022-07-25T09:44:23.253Z,4.03
2022-07-25T09:46:53.447Z,3.90
2022-07-25T09:49:20.383Z,4.45
2022-07-25T09:51:47.598Z,4.05
2022-07-25T09:54:15.852Z,4.07
2022-07-25T09:56:42.771Z,3.80
2022-07-25T09:59:11.499Z,4.50
2022-07-25T10:01:46.183Z,4.20
2022-07-25T10:04:19.052Z,4.20
2022-07-25T10:06:49.723Z,3.95
2022-07-25T10:09:17.454Z,3.97
2022-07-25T10:12:03.502Z,3.80
2022-07-25T10:14:30.517Z,4.22
2022-07-25T10:16:57.492Z,3.50
2022-07-25T10:19:45.866Z,4.18
2022-07-25T10:22:16.489Z,3.65
2022-07-25T10:24:47.667Z,3.83
2022-07-25T10:27:22.804Z,3.50
2022-07-25T10:29:56.906Z,3.33
2022-07-25T10:32:32.536Z,3.95
2022-07-25T10:34:59.562Z,3.88
2022-07-25T10:37:29.808Z,4.38
2022-07-25T10:39:58.883Z,3.30
2022-07-25T10:42:35.391Z,3.75
2022-07-25T10:45:05.372Z,4.60
2022-07-25T10:47:42.480Z,4.10
2022-07-25T10:50:34.832Z,3.78
2022-07-25T10:53:00.924Z,3.97
2022-07-25T10:55:32.348Z,3.83
2022-07-25T10:58:20.284Z,3.45
2022-07-25T11:00:47.197Z,4.20
2022-07-25T11:03:18.325Z,4.00
2022-07-25T11:05:49.212Z,3.78
2022-07-25T11:08:22.148Z,3.72
2022-07-25T11:10:53.589Z,4.15
2022-07-25T11:13:21.296Z,3.92
2022-07-25T11:20:16.851Z,3.58
2022-07-25T11:22:43.749Z,3.42
2022-07-25T11:25:16.134Z,3.47
2022-07-25T11:27:43.135Z,3.78
2022-07-25T11:30:12.264Z,3.70
2022-07-25T11:32:41.169Z,3.97
2022-07-25T11:35:11.144Z,3.97
2022-07-25T11:37:40.082Z,3.92
2022-07-25T11:40:08.942Z,3.70
2022-07-25T11:42:44.671Z,4.15
2022-07-25T11:45:25.977Z,3.92
2022-07-25T11:48:29.444Z,3.70
2022-07-25T11:50:56.355Z,3.92
2022-07-25T11:53:23.360Z,4.38
2022-07-25T11:55:50.467Z,3.88
2022-07-25T11:58:18.223Z,4.25
2022-07-25T12:00:53.046Z,4.20
2022-07-25T12:03:23.321Z,3.50
2022-07-25T12:05:50.503Z,4.25
2022-07-25T12:08:19.728Z,4.32
2022-07-25T12:10:51.950Z,4.45
2022-07-25T12:13:29.867Z,3.92
2022-07-25T12:15:58.377Z,3.70
2022-07-25T12:18:25.715Z,3.53
2022-07-25T12:20:55.947Z,3.88
2022-07-25T12:23:23.009Z,4.20
2022-07-25T12:25:50.086Z,3.63
2022-07-25T12:28:17.205Z,3.80
2022-07-25T12:30:46.783Z,3.70
2022-07-25T12:33:14.499Z,3.38
2022-07-25T12:35:42.761Z,3.15
2022-07-25T12:38:11.183Z,3.30
2022-07-25T12:40:38.408Z,3.42
2022-07-25T12:43:09.585Z,3.30
2022-07-25T12:45:36.740Z,3.03
2022-07-25T12:48:05.464Z,3.35
2022-07-25T12:50:32.312Z,3.80
2022-07-25T12:52:59.384Z,3.63
2022-07-25T12:55:29.373Z,3.88
2022-07-25T12:57:58.149Z,4.03
2022-07-25T13:00:27.408Z,4.13
2022-07-25T13:02:57.571Z,4.03
2022-07-25T13:05:25.871Z,3.55
2022-07-25T13:07:55.379Z,2.97
2022-07-25T13:10:22.724Z,3.58
2022-07-25T13:12:50.296Z,3.95
2022-07-25T13:15:20.802Z,3.85
2022-07-25T13:17:47.824Z,3.47
2022-07-25T13:20:16.009Z,3.67
2022-07-25T13:22:44.345Z,3.88
2022-07-25T13:25:11.435Z,4.07
2022-07-25T13:27:38.881Z,3.65
2022-07-25T13:30:08.985Z,3.53
2022-07-25T13:32:36.907Z,3.40
2022-07-25T13:35:04.582Z,3.20
2022-07-25T13:37:33.135Z,3.83
2022-07-25T13:40:00.263Z,3.85
2022-07-25T13:42:27.484Z,3.75
2022-07-25T13:45:02.282Z,3.60
2022-07-25T13:47:30.621Z,3.92
2022-07-25T13:49:57.896Z,3.38
2022-07-25T13:52:27.502Z,3.20
2022-07-25T13:54:57.577Z,3.63
2022-07-25T13:57:25.529Z,3.50
2022-07-25T13:59:52.950Z,4.57
2022-07-25T14:02:20.279Z,3.95
2022-07-25T14:04:47.342Z,3.90
2022-07-25T14:07:17.958Z,3.60
2022-07-25T14:09:45.031Z,4.57
2022-07-25T14:12:12.017Z,4.10
2022-07-25T14:14:38.911Z,4.00
2022-07-25T14:17:08.370Z,4.40
2022-07-25T14:19:35.347Z,4.28
2022-07-25T14:22:02.414Z,4.25
2022-07-25T14:24:29.490Z,4.30
2022-07-25T14:26:56.599Z,4.20
2022-07-25T14:29:27.277Z,4.22
2022-07-25T14:31:57.636Z,4.40
2022-07-25T14:34:24.690Z,5.38
2022-07-25T14:36:51.591Z,4.80
2022-07-25T14:39:18.489Z,4.47
2022-07-25T14:41:46.245Z,5.03
2022-07-25T14:44:19.439Z,4.90
2022-07-25T14:46:50.208Z,4.93
2022-07-25T14:49:17.329Z,4.10
2022-07-25T14:51:49.637Z,4.97
2022-07-25T14:54:17.475Z,4.60
2022-07-25T14:56:45.143Z,4.13
2022-07-25T15:01:52.800Z,4.10
2022-07-25T15:04:21.973Z,3.97
2022-07-25T15:06:49.371Z,4.30
2022-07-25T15:09:16.845Z,4.68
2022-07-25T15:11:43.764Z,4.70
2022-07-25T15:14:10.818Z,4.57
2022-07-25T15:16:40.191Z,4.57
2022-07-25T15:19:16.844Z,4.20
2022-07-25T15:21:44.410Z,4.25
2022-07-25T15:24:12.029Z,4.20
2022-07-25T15:26:39.609Z,4.40
2022-07-25T15:29:09.757Z,4.68
2022-07-25T15:31:37.723Z,4.38
2022-07-25T15:34:05.168Z,4.15
2022-07-25T15:36:34.852Z,4.20
2022-07-25T15:39:13.722Z,4.22
2022-07-25T15:41:40.728Z,4.10
2022-07-25T15:44:10.033Z,4.35
2022-07-25T15:46:41.552Z,3.50
2022-07-25T15:49:10.255Z,3.60
2022-07-25T15:52:03.867Z,3.85
2022-07-25T15:54:31.074Z,3.58
2022-07-25T15:56:58.397Z,3.33
2022-07-25T15:59:25.684Z,3.67
2022-07-25T16:01:52.654Z,3.40
2022-07-25T16:04:21.898Z,3.40
2022-07-25T16:06:49.030Z,3.67
2022-07-25T16:09:19.364Z,3.00
2022-07-25T16:11:46.548Z,3.65
2022-07-25T16:14:13.510Z,3.72
2022-07-25T16:16:42.468Z,3.63
2022-07-25T16:19:10.241Z,3.42
2022-07-25T16:21:38.875Z,3.17
2022-07-25T16:24:12.471Z,3.20
2022-07-25T16:26:39.714Z,3.20
2022-07-25T16:29:08.325Z,2.92
2022-07-25T16:31:35.736Z,3.45
2022-07-25T16:34:02.944Z,2.63
2022-07-25T16:36:30.024Z,2.40
2022-07-25T16:38:57.469Z,2.72
2022-07-25T16:41:24.321Z,2.30
2022-07-25T16:43:53.603Z,2.60
2022-07-25T16:46:22.689Z,2.75
2022-07-25T16:48:51.609Z,2.67
2022-07-25T16:51:18.584Z,2.42
2022-07-25T16:53:48.141Z,1.80
2022-07-25T16:56:16.594Z,2.10
2022-07-25T16:58:43.935Z,2.08
2022-07-25T17:01:10.871Z,2.10
2022-07-25T17:03:37.889Z,2.00
2022-07-25T17:06:06.660Z,1.80
2022-07-25T17:08:34.561Z,2.30
2022-07-25T17:11:01.722Z,1.40
2022-07-25T17:13:28.678Z,1.80
2022-07-25T17:15:55.582Z,1.55
2022-07-25T17:18:22.523Z,1.50
2022-07-25T17:20:49.544Z,1.55
2022-07-25T17:23:16.515Z,1.63
2022-07-25T17:25:47.317Z,1.27
2022-07-25T17:28:17.286Z,1.13
2022-07-25T17:30:44.427Z,1.20
2022-07-25T17:33:11.464Z,1.55
2022-07-25T17:35:38.487Z,1.48
2022-07-25T17:38:05.589Z,1.48
2022-07-25T17:40:32.683Z,1.30
2022-07-25T17:42:59.859Z,1.13
2022-07-25T17:45:26.789Z,1.40
2022-07-25T17:47:55.161Z,1.20
2022-07-25T17:50:29.192Z,1.20
2022-07-25T17:53:00.418Z,1.30
2022-07-25T17:55:28.811Z,1.23
2022-07-25T17:57:56.145Z,0.80
2022-07-25T18:00:23.893Z,1.02
2022-07-25T18:02:53.500Z,1.10
2022-07-25T18:05:20.459Z,1.00
2022-07-25T18:07:49.977Z,1.42
2022-07-25T18:10:18.704Z,0.98
2022-07-25T18:12:45.660Z,1.30
2022-07-25T18:15:12.797Z,0.90
2022-07-25T18:17:43.025Z,1.05
2022-07-25T18:20:11.336Z,1.08
2022-07-25T18:22:38.385Z,0.88
2022-07-25T18:25:06.676Z,1.25
2022-07-25T18:27:34.582Z,0.73
2022-07-25T18:30:01.992Z,0.93
2022-07-25T18:32:29.367Z,0.80
2022-07-25T18:34:56.356Z,1.15
2022-07-25T18:37:25.830Z,1.00
2022-07-25T18:39:52.783Z,0.90
2022-07-25T18:42:19.720Z,0.80
2022-07-25T18:44:46.661Z,0.95
2022-07-25T18:47:14.324Z,0.80
2022-07-25T18:49:42.073Z,0.90
2022-07-25T18:52:08.964Z,0.85
2022-07-25T18:54:35.865Z,1.00
2022-07-25T18:57:05.841Z,0.70
2022-07-25T18:59:33.201Z,0.82
2022-07-25T19:02:01.064Z,1.10
2022-07-25T19:04:27.997Z,1.13
2022-07-25T19:06:56.562Z,1.25
2022-07-25T19:09:23.711Z,0.90
2022-07-25T19:11:50.562Z,1.00
2022-07-25T19:14:17.624Z,1.48
2022-07-25T19:16:44.875Z,0.90
2022-07-25T19:19:12.030Z,0.90
2022-07-25T19:21:39.095Z,1.02
2022-07-25T19:24:06.749Z,1.05
2022-07-25T19:26:33.958Z,0.82
2022-07-25T19:29:00.888Z,0.73
2022-07-25T19:31:27.914Z,1.13
2022-07-25T19:33:54.937Z,1.00
2022-07-25T19:36:22.984Z,1.00
2022-07-25T19:38:50.434Z,0.80
2022-07-25T19:41:17.531Z,0.80
2022-07-25T19:43:44.648Z,0.95
2022-07-25T19:46:12.730Z,0.80
2022-07-25T19:48:39.780Z,0.70
2022-07-25T19:51:06.931Z,0.93
2022-07-25T19:53:33.889Z,0.90
2022-07-25T19:56:03.450Z,0.90
2022-07-25T19:58:33.072Z,0.70
2022-07-25T20:01:02.479Z,1.00
2022-07-25T20:03:29.468Z,0.75
2022-07-25T20:05:56.384Z,1.10
2022-07-25T20:08:23.204Z,1.00
2022-07-25T20:10:50.312Z,0.95
2022-07-25T20:13:17.258Z,0.80
2022-07-25T20:15:44.573Z,0.68
2022-07-25T20:18:15.987Z,1.00
2022-07-25T20:20:46.381Z,0.77
2022-07-25T20:23:13.395Z,0.60
2022-07-25T20:25:40.210Z,0.85
2022-07-25T20:28:07.098Z,1.00
2022-07-25T20:30:35.115Z,0.98
2022-07-25T20:33:08.171Z,0.70
2022-07-25T20:35:38.029Z,1.00
2022-07-25T20:38:09.432Z,0.80
2022-07-25T20:40:48.232Z,0.90
2022-07-25T20:43:16.821Z,0.90
2022-07-25T20:45:43.898Z,0.88
2022-07-25T20:48:11.089Z,0.73
2022-07-25T20:50:39.624Z,0.60
2022-07-25T20:53:07.599Z,0.70
2022-07-25T20:55:34.918Z,0.65
2022-07-25T20:58:02.702Z,0.73
2022-07-25T21:00:30.734Z,0.80
2022-07-25T21:02:58.731Z,0.70
2022-07-25T21:05:27.280Z,0.70
2022-07-25T21:07:56.053Z,0.90
2022-07-25T21:10:24.109Z,0.68
2022-07-25T21:12:51.303Z,0.70
2022-07-25T21:15:20.705Z,0.82
2022-07-25T21:17:47.611Z,0.60
2022-07-25T21:20:15.310Z,0.60
2022-07-25T21:22:43.467Z,0.70
2022-07-25T21:25:11.353Z,0.50
2022-07-25T21:27:39.280Z,0.50
2022-07-25T21:30:08.922Z,0.70
2022-07-25T21:32:36.704Z,0.85
2022-07-25T21:35:05.519Z,0.80
2022-07-25T21:37:32.925Z,0.77
2022-07-25T21:40:00.211Z,0.77
2022-07-25T21:42:27.138Z,0.70
2022-07-25T21:44:54.230Z,1.10
2022-07-25T21:47:21.555Z,1.10
2022-07-25T21:50:07.395Z,0.70
2022-07-25T21:52:34.779Z,0.88
2022-07-25T21:55:04.342Z,0.77
2022-07-25T21:57:32.093Z,1.08
2022-07-25T21:59:59.011Z,0.90
2022-07-25T22:02:26.369Z,1.15
2022-07-25T22:04:53.449Z,0.70
2022-07-25T22:07:20.662Z,0.60
2022-07-25T22:09:47.612Z,0.68
2022-07-25T22:12:15.441Z,0.60
2022-07-25T22:14:42.549Z,0.80
2022-07-25T22:17:09.554Z,0.70
2022-07-25T22:19:36.443Z,0.80
2022-07-25T22:22:06.072Z,0.60
2022-07-25T22:24:33.491Z,0.60
2022-07-25T22:27:00.408Z,0.50
2022-07-25T22:29:27.422Z,0.70
2022-07-25T22:31:54.406Z,0.70
2022-07-25T22:34:21.427Z,0.70
2022-07-25T22:36:57.409Z,0.60
2022-07-25T22:39:24.856Z,0.60
2022-07-25T22:41:52.086Z,0.60
2022-07-25T22:44:19.134Z,0.63
2022-07-25T22:46:46.508Z,0.70
2022-07-25T22:49:13.731Z,0.90
2022-07-25T22:51:41.137Z,0.80
2022-07-25T22:54:08.127Z,0.70
2022-07-25T22:56:35.480Z,0.70
2022-07-25T22:59:02.497Z,0.60
2022-07-25T23:01:29.464Z,0.60
2022-07-25T23:03:56.421Z,0.82
2022-07-25T23:06:23.422Z,0.80
2022-07-25T23:08:51.289Z,0.60
2022-07-25T23:11:18.785Z,0.47
2022-07-25T23:13:45.618Z,0.60
2022-07-25T23:16:12.657Z,0.60
2022-07-25T23:18:40.132Z,0.90
2022-07-25T23:21:07.154Z,0.50
2022-07-25T23:23:36.458Z,0.70
2022-07-25T23:26:03.933Z,0.70
2022-07-25T23:28:30.896Z,0.93
2022-07-25T23:30:58.084Z,0.80
2022-07-25T23:33:25.885Z,0.73
2022-07-25T23:35:53.884Z,1.10
2022-07-25T23:38:21.640Z,0.55
2022-07-25T23:40:49.267Z,0.80
2022-07-25T23:43:30.864Z,0.80
2022-07-25T23:46:03.569Z,0.80
2022-07-25T23:48:30.680Z,0.70
2022-07-25T23:50:57.573Z,0.57
2022-07-25T23:53:24.532Z,0.80
2022-07-25T23:55:51.521Z,0.63
2022-07-25T23:58:18.358Z,0.85
